Time;durP1;ratioP1;P1;durP2;ratioP2;P2;SDS_P1;SDS_P2;PMS_P1;PMS_P2;Temp;Humidity;BMP_temperature;BMP_pressure;BME280_temperature;BME280_humidity;BME280_pressure;Samples;Min_cycle;Max_cycle;Signal;HPM_P1;HPM_P2
2021/09/07 00:01:08;;;;;;;2.88;1.70;;;;;;;9.12;80.63;100101.75;5071299;28;20127;-60
2021/09/07 00:03:33;;;;;;;6.78;1.70;;;;;;;9.23;80.18;100104.97;5053462;28;20051;-61
2021/09/07 00:06:00;;;;;;;5.97;1.95;;;;;;;9.25;80.12;100116.19;5053515;28;20041;-60
2021/09/07 00:08:26;;;;;;;3.47;1.67;;;;;;;9.25;80.36;100116.19;5065481;28;20054;-61
2021/09/07 00:10:51;;;;;;;3.42;1.70;;;;;;;9.26;80.44;100112.72;5091484;28;20044;-60
2021/09/07 00:13:18;;;;;;;3.78;1.50;;;;;;;9.24;80.75;100115.31;5071365;28;20127;-60
2021/09/07 00:15:45;;;;;;;3.55;1.65;;;;;;;9.23;80.88;100116.22;5071039;28;20032;-62
2021/09/07 00:18:11;;;;;;;2.55;1.40;;;;;;;9.20;80.88;100112.84;5071046;28;20040;-61
2021/09/07 00:20:37;;;;;;;3.70;1.80;;;;;;;9.24;81.16;100117.06;5070889;28;20527;-60
2021/09/07 00:23:04;;;;;;;4.03;1.52;;;;;;;9.29;80.30;100121.28;5070828;28;20131;-61
2021/09/07 00:25:30;;;;;;;4.05;1.70;;;;;;;9.17;81.10;100099.91;5071074;28;20119;-60
2021/09/07 00:27:55;;;;;;;4.88;1.90;;;;;;;9.23;80.84;100116.22;5053259;28;20131;-59
2021/09/07 00:30:21;;;;;;;3.47;1.52;;;;;;;9.21;81.23;100114.56;5106954;28;20096;-60
2021/09/07 00:32:47;;;;;;;3.42;1.80;;;;;;;9.20;81.57;100110.25;5111618;28;20059;-61
2021/09/07 00:35:12;;;;;;;3.35;1.73;;;;;;;9.06;81.73;100089.78;5090169;28;20078;-59
2021/09/07 00:37:40;;;;;;;3.78;1.70;;;;;;;9.24;81.72;100117.06;5061482;28;20145;-60
2021/09/07 00:40:07;;;;;;;4.55;1.73;;;;;;;9.25;81.42;100111.00;5087706;28;20511;-62
2021/09/07 00:42:34;;;;;;;4.13;1.67;;;;;;;9.11;82.29;100097.44;5069112;28;20068;-60
2021/09/07 00:45:03;;;;;;;2.57;1.30;;;;;;;9.12;82.62;100112.13;5071024;28;20121;-62
2021/09/07 00:47:29;;;;;;;2.72;1.33;;;;;;;9.08;82.83;100116.53;5070795;28;20041;-61
2021/09/07 00:49:54;;;;;;;2.97;1.60;;;;;;;9.09;82.54;100114.81;5070421;28;20040;-61
2021/09/07 00:52:20;;;;;;;3.50;1.30;;;;;;;9.08;82.80;100113.09;5086573;28;20105;-61
2021/09/07 00:54:47;;;;;;;3.72;1.48;;;;;;;9.11;82.97;100107.81;5048501;28;20055;-60
2021/09/07 00:57:12;;;;;;;4.85;1.40;;;;;;;9.12;82.92;100107.81;5066056;28;20041;-60
2021/09/07 00:59:38;;;;;;;3.42;1.83;;;;;;;9.14;82.55;100110.38;5049045;28;20052;-61
2021/09/07 01:02:06;;;;;;;2.70;1.40;;;;;;;9.13;82.53;100100.88;5050277;28;20452;-62
2021/09/07 01:04:33;;;;;;;1.92;1.20;;;;;;;9.09;83.19;100107.88;5050682;28;20068;-61
2021/09/07 01:07:00;;;;;;;3.40;1.45;;;;;;;9.09;82.86;100107.88;5050699;28;20581;-59
2021/09/07 01:09:27;;;;;;;3.05;1.33;;;;;;;9.09;82.76;100101.84;5048985;28;20508;-57
2021/09/07 01:11:53;;;;;;;7.18;1.20;;;;;;;9.08;82.92;100102.72;5049898;28;20045;-58
2021/09/07 01:14:27;;;;;;;2.08;1.25;;;;;;;9.07;83.48;100107.03;5050109;28;20039;-59
2021/09/07 01:16:53;;;;;;;2.40;1.20;;;;;;;9.08;83.19;100107.91;5056908;28;20082;-57
2021/09/07 01:19:19;;;;;;;2.05;1.20;;;;;;;9.16;82.92;100103.41;5050014;28;20052;-58
2021/09/07 01:21:44;;;;;;;2.63;1.20;;;;;;;9.15;82.75;100099.97;5049923;28;20028;-57
2021/09/07 01:24:10;;;;;;;4.28;1.40;;;;;;;9.15;82.92;100097.38;5050064;28;20033;-59
2021/09/07 01:26:36;;;;;;;2.85;1.48;;;;;;;9.12;82.84;100086.19;5049899;28;20853;-58
2021/09/07 01:29:02;;;;;;;2.60;1.20;;;;;;;9.19;83.12;100095.56;5061297;28;20075;-58
2021/09/07 01:31:29;;;;;;;1.77;1.08;;;;;;;9.16;83.05;100098.22;5049026;28;20037;-58
2021/09/07 01:33:56;;;;;;;2.88;1.25;;;;;;;9.14;83.19;100087.88;5048531;28;20033;-57
2021/09/07 01:36:22;;;;;;;3.10;1.60;;;;;;;9.17;83.53;100090.41;5049792;28;20049;-57
2021/09/07 01:38:48;;;;;;;3.08;1.30;;;;;;;9.15;83.65;100091.34;5049745;28;20064;-56
2021/09/07 01:41:14;;;;;;;3.90;1.20;;;;;;;9.17;83.31;100102.50;5049991;28;20074;-57
2021/09/07 01:43:39;;;;;;;3.45;1.42;;;;;;;9.18;83.30;100096.44;5031855;28;20127;-55
2021/09/07 01:46:05;;;;;;;3.00;1.33;;;;;;;9.18;83.70;100097.28;5054791;28;20508;-57
2021/09/07 01:48:31;;;;;;;3.95;1.30;;;;;;;9.20;83.36;100084.31;5068896;28;20044;-57
2021/09/07 01:50:57;;;;;;;3.58;1.20;;;;;;;9.11;83.41;100079.28;5058668;28;20041;-58
2021/09/07 01:53:23;;;;;;;1.80;1.20;;;;;;;9.09;83.01;100060.34;5064026;28;20085;-57
2021/09/07 01:55:49;;;;;;;2.72;1.08;;;;;;;9.27;83.17;100085.84;5071003;28;20047;-56
2021/09/07 01:58:15;;;;;;;2.70;1.48;;;;;;;9.32;82.64;100078.81;5087698;28;20390;-57
2021/09/07 02:00:41;;;;;;;3.03;1.38;;;;;;;9.35;82.54;100078.75;5085473;28;20064;-55
2021/09/07 02:03:07;;;;;;;3.35;1.40;;;;;;;9.27;83.03;100075.47;5069590;28;20037;-57
2021/09/07 02:05:33;;;;;;;2.35;1.40;;;;;;;9.25;83.44;100085.06;5070027;28;20074;-57
2021/09/07 02:07:59;;;;;;;5.13;1.30;;;;;;;9.14;83.50;100071.47;5089477;28;20088;-57
2021/09/07 02:10:25;;;;;;;2.65;1.05;;;;;;;9.19;83.58;100072.22;5073342;28;20503;-58
2021/09/07 02:12:51;;;;;;;4.47;1.10;;;;;;;9.19;84.03;100067.88;5073718;28;20135;-59
2021/09/07 02:15:18;;;;;;;2.63;1.30;;;;;;;9.21;84.14;100076.47;5094977;28;20047;-58
2021/09/07 02:17:44;;;;;;;4.07;1.35;;;;;;;9.17;83.31;100061.84;5077441;28;20044;-58
2021/09/07 02:20:12;;;;;;;1.88;1.00;;;;;;;9.28;83.63;100072.84;5072957;28;20503;-57
2021/09/07 02:22:39;;;;;;;2.03;1.02;;;;;;;9.26;83.68;100076.38;5073613;28;20052;-57
2021/09/07 02:25:06;;;;;;;3.10;1.10;;;;;;;9.28;83.49;100074.59;5073296;28;20040;-58
2021/09/07 02:27:33;;;;;;;3.60;1.45;;;;;;;9.38;83.38;100085.59;5073604;28;20450;-57
2021/09/07 02:29:59;;;;;;;1.58;1.08;;;;;;;9.40;82.91;100084.69;5085438;28;20047;-57
2021/09/07 02:32:24;;;;;;;7.68;1.42;;;;;;;9.36;83.33;100083.06;5085847;28;20044;-57
2021/09/07 02:34:52;;;;;;;2.22;1.17;;;;;;;9.36;83.25;100077.88;5054967;28;20036;-57
2021/09/07 02:37:18;;;;;;;5.30;1.40;;;;;;;9.27;83.03;100047.78;5073305;28;20040;-57
2021/09/07 02:39:44;;;;;;;1.63;1.13;;;;;;;9.38;82.88;100068.28;5073302;28;20063;-57
2021/09/07 02:42:10;;;;;;;2.20;1.27;;;;;;;9.39;82.89;100061.38;5072579;28;20045;-56
2021/09/07 02:44:36;;;;;;;2.33;1.23;;;;;;;9.30;83.04;100058.13;5072911;28;20048;-57
2021/09/07 02:47:02;;;;;;;8.82;1.23;;;;;;;9.30;83.31;100073.69;5072758;28;20466;-58
2021/09/07 02:49:28;;;;;;;3.25;1.38;;;;;;;9.33;83.40;100077.94;5072474;28;20052;-57
2021/09/07 02:51:54;;;;;;;10.18;1.17;;;;;;;9.31;83.53;100067.59;5072470;28;20045;-57
2021/09/07 02:54:21;;;;;;;1.70;1.00;;;;;;;9.32;83.27;100073.63;5072598;28;20522;-57
2021/09/07 02:56:47;;;;;;;4.30;1.08;;;;;;;9.30;83.27;100070.22;5072402;28;20076;-58
2021/09/07 02:59:15;;;;;;;2.92;1.25;;;;;;;9.27;83.54;100076.31;5072148;28;20181;-59
2021/09/07 03:01:41;;;;;;;3.72;1.30;;;;;;;9.20;83.68;100061.81;5054655;28;20051;-57
2021/09/07 03:04:07;;;;;;;2.22;1.30;;;;;;;9.21;83.83;100063.50;5055148;28;20064;-56
2021/09/07 03:06:35;;;;;;;2.47;1.38;;;;;;;9.27;84.38;100065.09;5072449;28;20042;-58
2021/09/07 03:09:02;;;;;;;2.50;1.20;;;;;;;9.38;83.85;100076.09;5072194;28;20499;-57
2021/09/07 03:11:30;;;;;;;2.97;1.25;;;;;;;9.34;84.38;100072.72;5070157;28;20047;-60
2021/09/07 03:13:56;;;;;;;3.78;1.52;;;;;;;9.34;84.88;100070.13;5086065;28;20068;-59
2021/09/07 03:16:24;;;;;;;2.95;1.20;;;;;;;9.35;85.10;100063.19;5071585;28;20500;-58
2021/09/07 03:18:51;;;;;;;3.17;1.58;;;;;;;9.37;85.38;100063.16;5071828;28;20048;-57
2021/09/07 03:21:17;;;;;;;2.28;1.17;;;;;;;9.38;85.11;100076.09;5071760;28;20466;-59
2021/09/07 03:23:44;;;;;;;4.20;1.27;;;;;;;9.35;85.64;100073.56;5072581;28;20376;-57
2021/09/07 03:26:12;;;;;;;3.20;1.30;;;;;;;9.32;85.99;100074.47;5072139;28;20044;-58
2021/09/07 03:28:38;;;;;;;3.28;1.33;;;;;;;9.39;85.49;100080.38;5079578;28;20043;-58
2021/09/07 03:31:06;;;;;;;1.92;1.20;;;;;;;9.40;86.15;100083.84;5112800;28;20031;-58
2021/09/07 03:33:32;;;;;;;2.60;1.25;;;;;;;9.40;86.26;100092.47;5100523;28;20134;-55
2021/09/07 03:36:00;;;;;;;1.95;1.05;;;;;;;9.48;86.24;100084.50;5072164;28;20032;-58
2021/09/07 03:38:26;;;;;;;3.33;1.30;;;;;;;9.44;86.13;100075.94;5071733;28;20041;-58
2021/09/07 03:40:55;;;;;;;3.40;1.38;;;;;;;9.41;87.31;100072.56;5071806;28;20032;-54
2021/09/07 03:43:21;;;;;;;3.67;1.33;;;;;;;9.40;87.81;100079.50;5071946;28;20082;-59
2021/09/07 03:45:48;;;;;;;2.15;1.10;;;;;;;9.41;88.14;100078.63;5071306;28;20127;-57
2021/09/07 03:48:14;;;;;;;2.00;1.15;;;;;;;9.46;87.79;100071.59;5071582;28;20131;-58
2021/09/07 03:50:40;;;;;;;4.30;1.10;;;;;;;9.42;87.58;100050.94;5084197;28;20048;-58
2021/09/07 03:53:07;;;;;;;2.97;1.50;;;;;;;9.48;89.01;100071.53;5072039;28;20036;-58
2021/09/07 03:55:33;;;;;;;2.75;1.30;;;;;;;9.44;89.11;100057.78;5071309;28;20054;-58
2021/09/07 03:58:00;;;;;;;2.95;1.60;;;;;;;9.53;89.08;100072.25;5052533;28;20036;-58
2021/09/07 04:00:27;;;;;;;8.02;1.70;;;;;;;9.56;88.97;100069.63;5071939;28;20033;-58
2021/09/07 04:02:54;;;;;;;3.00;0.88;;;;;;;9.45;89.65;100074.19;5071634;28;20079;-55
2021/09/07 04:05:21;;;;;;;2.67;1.50;;;;;;;9.39;91.14;100079.53;5071020;28;20554;-57
2021/09/07 04:07:51;;;;;;;2.92;1.25;;;;;;;9.31;91.46;100078.00;5079072;28;20036;-58
2021/09/07 04:10:17;;;;;;;2.63;1.50;;;;;;;9.28;91.81;100078.03;5071366;28;20081;-55
2021/09/07 04:12:46;;;;;;;3.87;1.73;;;;;;;9.35;91.45;100087.41;5071084;28;20048;-57
2021/09/07 04:15:12;;;;;;;3.25;1.88;;;;;;;9.43;90.69;100074.22;5071287;28;20044;-56
2021/09/07 04:17:38;;;;;;;3.90;2.30;;;;;;;9.54;89.80;100072.25;5071228;28;20085;-57
2021/09/07 04:20:05;;;;;;;3.00;2.13;;;;;;;9.61;89.87;100068.63;5069784;28;20530;-59
2021/09/07 04:22:33;;;;;;;4.68;1.95;;;;;;;9.61;89.42;100072.94;5083628;28;20072;-56
2021/09/07 04:24:58;;;;;;;4.82;2.10;;;;;;;9.66;89.42;100074.56;5071281;28;20166;-59
2021/09/07 04:27:24;;;;;;;4.80;1.55;;;;;;;9.75;88.97;100074.31;5081436;28;20135;-57
2021/09/07 04:29:50;;;;;;;4.78;1.63;;;;;;;9.75;87.97;100076.06;5074456;28;20044;-55
2021/09/07 04:32:15;;;;;;;4.70;2.25;;;;;;;9.74;87.92;100070.00;5070708;28;20040;-58
2021/09/07 04:34:41;;;;;;;4.40;2.00;;;;;;;9.88;87.09;100074.03;5070937;28;20048;-57
2021/09/07 04:37:07;;;;;;;3.70;1.48;;;;;;;9.96;86.15;100079.84;5070542;28;20155;-54
2021/09/07 04:39:33;;;;;;;7.75;1.42;;;;;;;10.00;85.56;100078.88;5070460;28;20051;-57
2021/09/07 04:41:58;;;;;;;2.50;1.50;;;;;;;9.98;84.99;100065.09;5052997;28;20048;-56
2021/09/07 04:44:25;;;;;;;3.95;1.38;;;;;;;9.94;83.74;100072.13;5070395;28;20044;-57
2021/09/07 04:46:51;;;;;;;1.40;1.00;;;;;;;9.83;83.63;100042.97;5070647;28;20137;-58
2021/09/07 04:49:17;;;;;;;2.13;1.40;;;;;;;10.06;83.17;100070.94;5069948;28;20040;-57
2021/09/07 04:51:43;;;;;;;4.93;1.30;;;;;;;10.13;83.17;100065.56;5069305;28;20094;-58
2021/09/07 04:54:08;;;;;;;1.80;0.80;;;;;;;10.16;82.05;100072.44;5075065;28;20063;-59
2021/09/07 04:56:34;;;;;;;4.53;1.17;;;;;;;10.10;81.75;100077.78;5069222;28;20063;-57
2021/09/07 04:59:00;;;;;;;2.22;1.15;;;;;;;10.14;82.01;100071.59;5083975;28;20036;-58
2021/09/07 05:01:26;;;;;;;2.72;1.13;;;;;;;10.18;81.21;100068.06;5092839;28;20040;-58
2021/09/07 05:03:52;;;;;;;2.85;1.85;;;;;;;10.23;80.73;100078.31;5090484;28;20507;-57
2021/09/07 05:06:17;;;;;;;3.22;1.17;;;;;;;10.29;80.50;100067.78;5067643;28;20070;-59
2021/09/07 05:08:43;;;;;;;3.03;1.30;;;;;;;10.45;79.93;100069.06;5069627;28;20411;-57
2021/09/07 05:11:09;;;;;;;2.83;1.27;;;;;;;10.62;79.19;100064.25;5079392;28;20573;-58
2021/09/07 05:13:35;;;;;;;3.45;1.40;;;;;;;10.67;78.22;100071.91;5075492;28;20036;-58
2021/09/07 05:16:00;;;;;;;1.55;0.70;;;;;;;10.76;76.87;100069.03;5069915;28;20446;-56
2021/09/07 05:18:26;;;;;;;2.33;1.10;;;;;;;10.66;76.81;100060.66;5070039;28;20044;-58
2021/09/07 05:20:52;;;;;;;4.13;1.55;;;;;;;10.71;76.66;100052.72;5072024;28;20044;-58
2021/09/07 05:23:17;;;;;;;3.25;1.30;;;;;;;11.05;76.10;100069.03;5081768;28;20062;-53
2021/09/07 05:25:43;;;;;;;6.28;1.60;;;;;;;11.33;74.52;100058.63;5082137;28;20039;-58
2021/09/07 05:28:09;;;;;;;9.50;1.77;;;;;;;11.55;73.76;100054.44;5080881;28;20048;-56
2021/09/07 05:30:34;;;;;;;7.28;1.83;;;;;;;11.72;73.05;100051.31;5080546;28;20044;-59
2021/09/07 05:33:00;;;;;;;4.53;1.50;;;;;;;11.80;71.38;100051.91;5068829;28;20044;-58
2021/09/07 05:35:26;;;;;;;2.45;1.50;;;;;;;11.79;71.21;100053.66;5070010;28;20515;-56
2021/09/07 05:37:52;;;;;;;4.25;1.67;;;;;;;11.77;71.42;100044.22;5069303;28;20507;-57
2021/09/07 05:40:17;;;;;;;4.35;2.20;;;;;;;11.68;70.82;100049.66;5079906;28;20039;-57
2021/09/07 05:42:43;;;;;;;2.80;1.15;;;;;;;11.64;70.85;100063.72;5090018;28;20040;-57
2021/09/07 05:45:18;;;;;;;1.67;0.90;;;;;;;11.52;70.70;100053.69;5085369;28;20097;-57
2021/09/07 05:47:44;;;;;;;4.30;1.25;;;;;;;11.47;71.19;100057.28;5080354;28;20132;-58
2021/09/07 05:50:13;;;;;;;4.22;1.30;;;;;;;11.39;70.55;100068.84;5085935;28;20294;-55
2021/09/07 05:52:39;;;;;;;5.97;1.45;;;;;;;11.40;71.10;100060.16;5083072;28;20036;-60
2021/09/07 05:55:05;;;;;;;1.67;0.98;;;;;;;11.56;70.08;100063.97;5085982;28;20580;-52
2021/09/07 05:57:32;;;;;;;3.63;1.10;;;;;;;11.93;68.59;100073.22;5083194;28;20082;-55
2021/09/07 05:59:57;;;;;;;3.53;1.50;;;;;;;12.48;67.56;100065.16;5069950;28;20452;-51
2021/09/07 06:02:23;;;;;;;2.92;1.45;;;;;;;13.29;65.08;100056.94;5084301;28;20044;-51
2021/09/07 06:04:49;;;;;;;2.92;1.17;;;;;;;14.27;60.56;100060.66;5081274;28;20040;-56
2021/09/07 06:07:15;;;;;;;1.98;1.10;;;;;;;14.79;58.17;100056.59;5079029;28;20054;-51
2021/09/07 06:09:40;;;;;;;2.15;1.30;;;;;;;15.00;56.94;100049.50;5080344;28;20066;-55
2021/09/07 06:12:06;;;;;;;3.20;1.00;;;;;;;15.28;56.10;100065.59;5078491;28;20090;-57
2021/09/07 06:14:33;;;;;;;3.17;1.45;;;;;;;15.24;55.64;100052.72;5084742;28;20089;-58
2021/09/07 06:17:00;;;;;;;2.33;1.02;;;;;;;15.40;54.88;100058.09;5068153;28;20040;-59
2021/09/07 06:19:25;;;;;;;3.20;1.40;;;;;;;16.44;53.33;100058.06;5081808;28;20036;-58
2021/09/07 06:21:51;;;;;;;3.30;1.30;;;;;;;16.53;51.58;100038.38;5075853;28;20078;-55
2021/09/07 06:24:17;;;;;;;6.03;1.63;;;;;;;17.06;50.87;100047.78;5064675;28;20071;-58
2021/09/07 06:26:43;;;;;;;3.80;1.40;;;;;;;17.79;49.19;100026.91;5064692;28;20060;-58
2021/09/07 06:29:09;;;;;;;2.83;1.50;;;;;;;18.46;47.00;100043.13;5056047;28;20499;-53
2021/09/07 06:31:34;;;;;;;2.75;1.40;;;;;;;19.30;45.32;100049.25;5079785;28;20071;-58
2021/09/07 06:34:00;;;;;;;1.92;1.30;;;;;;;19.95;43.99;100052.00;5074302;28;20093;-58
2021/09/07 06:36:26;;;;;;;1.38;0.88;;;;;;;20.08;42.33;100047.59;5072556;28;20506;-58
2021/09/07 06:38:52;;;;;;;4.38;1.38;;;;;;;20.41;42.00;100042.66;5067860;28;20072;-58
2021/09/07 06:41:18;;;;;;;5.05;1.30;;;;;;;20.27;41.64;100034.81;5050571;28;20071;-53
2021/09/07 06:43:44;;;;;;;2.65;1.30;;;;;;;20.99;40.62;100047.34;5058373;28;20059;-56
2021/09/07 06:46:09;;;;;;;8.43;1.52;;;;;;;21.69;39.75;100030.81;5072297;28;20044;-52
2021/09/07 06:48:35;;;;;;;2.00;1.23;;;;;;;21.56;40.11;100041.47;5076109;28;20042;-53
2021/09/07 06:51:01;;;;;;;2.00;1.00;;;;;;;21.22;39.33;100035.16;5067663;28;20130;-55
2021/09/07 06:53:27;;;;;;;2.20;1.35;;;;;;;19.97;41.44;100036.91;5086239;28;20032;-57
2021/09/07 06:55:53;;;;;;;2.58;1.00;;;;;;;19.68;42.58;100034.41;5070529;28;20040;-55
2021/09/07 06:58:18;;;;;;;6.32;1.70;;;;;;;19.50;43.16;100026.88;5073467;28;20048;-53
2021/09/07 07:00:44;;;;;;;2.58;1.30;;;;;;;19.13;43.77;100029.25;5090606;28;20028;-55
2021/09/07 07:03:10;;;;;;;5.68;1.30;;;;;;;18.18;45.50;100031.63;5088903;28;20522;-50
2021/09/07 07:05:35;;;;;;;2.92;1.33;;;;;;;17.65;47.00;100031.28;5091076;28;20139;-52
2021/09/07 07:08:01;;;;;;;3.70;1.00;;;;;;;17.33;48.11;100030.47;5089850;28;20051;-55
2021/09/07 07:10:27;;;;;;;2.97;1.50;;;;;;;16.86;49.15;100038.34;5089224;28;20032;-53
2021/09/07 07:12:53;;;;;;;8.10;1.30;;;;;;;16.18;50.78;100026.22;5091026;28;20431;-52
2021/09/07 07:15:18;;;;;;;3.78;1.40;;;;;;;15.48;51.90;100019.28;5091505;28;20044;-56
2021/09/07 07:17:44;;;;;;;2.08;1.23;;;;;;;15.08;53.62;100028.19;5068358;28;20039;-53
2021/09/07 07:20:11;;;;;;;3.00;1.23;;;;;;;14.84;54.44;100043.28;5091408;28;20067;-53
2021/09/07 07:22:37;;;;;;;2.47;0.98;;;;;;;14.56;55.00;100038.44;5089902;28;20047;-54
2021/09/07 07:25:04;;;;;;;2.78;1.45;;;;;;;14.50;55.54;100041.31;5089692;28;20043;-52
2021/09/07 07:27:30;;;;;;;3.53;1.30;;;;;;;14.58;55.50;100036.63;5055143;28;20044;-53
2021/09/07 07:29:55;;;;;;;2.15;1.30;;;;;;;14.67;55.29;100032.72;5088850;28;20617;-54
2021/09/07 07:32:21;;;;;;;2.22;1.00;;;;;;;14.62;55.81;100051.25;5071369;28;20035;-56
2021/09/07 07:34:47;;;;;;;3.42;1.40;;;;;;;14.47;56.38;100051.94;5091925;28;20151;-53
2021/09/07 07:37:13;;;;;;;2.67;1.00;;;;;;;14.28;57.32;100051.03;5073392;28;20578;-53
2021/09/07 07:39:39;;;;;;;1.17;0.80;;;;;;;13.92;58.83;100040.41;5091286;28;20423;-48
2021/09/07 07:42:05;;;;;;;2.05;1.00;;;;;;;13.80;59.54;100051.34;5091986;28;20043;-50
2021/09/07 07:44:30;;;;;;;3.03;1.35;;;;;;;13.42;60.82;100029.41;5067310;28;20047;-53
2021/09/07 07:46:56;;;;;;;1.55;0.80;;;;;;;13.23;61.74;100050.19;5091933;28;20048;-52
2021/09/07 07:49:22;;;;;;;7.07;1.60;;;;;;;13.23;61.43;100037.13;5073202;28;20036;-54
2021/09/07 07:51:48;;;;;;;2.20;1.15;;;;;;;13.43;61.13;100044.16;5091794;28;20082;-54
2021/09/07 07:54:13;;;;;;;3.13;1.40;;;;;;;13.48;60.96;100044.81;5090165;28;20048;-51
2021/09/07 07:56:39;;;;;;;3.53;1.40;;;;;;;13.42;61.12;100050.28;5066127;28;20127;-53
2021/09/07 07:59:06;;;;;;;2.67;1.20;;;;;;;13.35;61.21;100044.47;5091672;28;20067;-54
2021/09/07 08:01:32;;;;;;;2.13;1.30;;;;;;;13.28;61.49;100034.34;5069623;28;20071;-52
2021/09/07 08:03:58;;;;;;;4.13;1.23;;;;;;;13.32;61.52;100041.97;5088131;28;20544;-54
2021/09/07 08:06:24;;;;;;;4.28;1.13;;;;;;;13.54;60.96;100040.22;5083090;28;20139;-55
2021/09/07 08:08:50;;;;;;;3.25;1.20;;;;;;;13.77;60.54;100043.63;5086983;28;20113;-51
2021/09/07 08:11:17;;;;;;;4.40;1.52;;;;;;;13.94;59.84;100035.94;5080860;28;20052;-50
2021/09/07 08:13:43;;;;;;;4.80;1.60;;;;;;;13.87;59.94;100045.78;5088258;28;20097;-51
2021/09/07 08:16:08;;;;;;;5.10;1.40;;;;;;;13.93;59.84;100037.69;5089035;28;20132;-53
2021/09/07 08:18:34;;;;;;;5.03;1.00;;;;;;;13.96;59.56;100021.88;5069302;28;20052;-49
2021/09/07 08:21:00;;;;;;;2.83;1.67;;;;;;;13.79;60.21;100033.97;5089761;28;20032;-53
2021/09/07 08:23:26;;;;;;;3.42;1.30;;;;;;;13.74;60.44;100022.84;5083273;28;20059;-49
2021/09/07 08:25:51;;;;;;;2.40;1.30;;;;;;;13.78;60.69;100025.28;5080215;28;20044;-49
2021/09/07 08:28:18;;;;;;;4.13;1.40;;;;;;;13.97;60.56;100036.63;5087495;28;20514;-52
2021/09/07 08:30:44;;;;;;;3.97;1.20;;;;;;;13.95;60.43;100030.66;5109732;28;20063;-54
2021/09/07 08:33:14;;;;;;;2.75;1.30;;;;;;;13.84;60.97;100025.00;5064194;28;20048;-53
2021/09/07 08:35:41;;;;;;;3.80;1.27;;;;;;;13.68;61.52;100034.41;5068736;28;20427;-52
2021/09/07 08:38:06;;;;;;;5.05;1.27;;;;;;;13.69;61.66;100033.50;5066262;28;20038;-51
2021/09/07 08:40:32;;;;;;;2.90;1.10;;;;;;;13.63;62.12;100033.75;5079117;28;20036;-53
2021/09/07 08:43:02;;;;;;;1.23;0.77;;;;;;;13.56;62.42;100030.53;5060060;28;20041;-50
2021/09/07 08:45:28;;;;;;;2.33;0.90;;;;;;;13.43;63.15;100036.31;5086136;28;20075;-53
2021/09/07 08:47:56;;;;;;;5.00;0.80;;;;;;;13.43;63.62;100034.56;5070636;28;20530;-50
2021/09/07 08:50:23;;;;;;;3.70;1.23;;;;;;;13.43;63.60;100031.09;5085122;28;20097;-50
2021/09/07 08:52:48;;;;;;;1.58;1.05;;;;;;;13.52;63.74;100031.56;5069640;28;20123;-53
2021/09/07 08:55:14;;;;;;;6.53;1.17;;;;;;;13.63;63.44;100027.66;5060183;28;20197;-51
2021/09/07 08:57:40;;;;;;;3.42;1.10;;;;;;;13.69;63.60;100035.25;5082872;28;20067;-51
2021/09/07 09:00:06;;;;;;;2.28;0.93;;;;;;;13.61;63.93;100032.13;5052314;28;20033;-53
2021/09/07 09:02:40;;;;;;;2.65;0.95;;;;;;;13.66;63.96;100030.19;5070503;28;20040;-51
2021/09/07 09:05:06;;;;;;;2.17;1.05;;;;;;;13.62;64.30;100031.19;5088061;28;20044;-52
2021/09/07 09:07:32;;;;;;;2.00;1.00;;;;;;;13.57;64.89;100047.91;5084129;28;20051;-51
2021/09/07 09:09:59;;;;;;;3.38;1.15;;;;;;;13.45;65.07;100024.06;5071667;28;20036;-52
2021/09/07 09:12:35;;;;;;;2.47;1.17;;;;;;;13.52;65.18;100028.97;5089979;28;20036;-54
2021/09/07 09:15:09;;;;;;;3.35;1.50;;;;;;;13.62;65.02;100033.81;5069946;28;20047;-55
2021/09/07 09:17:35;;;;;;;2.20;1.20;;;;;;;13.53;65.41;100033.28;5085817;28;20047;-51
2021/09/07 09:20:05;;;;;;;2.42;1.20;;;;;;;13.56;65.39;100030.53;5067270;28;20036;-56
2021/09/07 09:22:48;;;;;;;7.95;1.42;;;;;;;13.59;65.53;100029.56;5070069;28;20046;-51
2021/09/07 09:25:19;;;;;;;1.52;1.10;;;;;;;13.62;65.61;100026.81;5088337;28;20047;-51
2021/09/07 09:28:09;;;;;;;1.85;1.00;;;;;;;13.67;65.28;100032.69;5090194;28;20523;-53
2021/09/07 09:30:42;;;;;;;5.82;1.50;;;;;;;13.60;65.57;100046.94;5082026;28;20041;-53
2021/09/07 09:33:10;;;;;;;2.95;1.13;;;;;;;13.44;65.65;100032.81;5069805;28;20036;-53
2021/09/07 09:35:48;;;;;;;2.88;1.60;;;;;;;13.56;65.55;100033.13;5081804;28;20071;-52
2021/09/07 09:38:14;;;;;;;6.03;1.50;;;;;;;13.47;65.24;100019.59;5051318;28;20028;-52
2021/09/07 09:40:40;;;;;;;2.80;1.00;;;;;;;13.58;65.10;100043.53;5069514;28;20048;-49
2021/09/07 09:43:25;;;;;;;3.83;1.73;;;;;;;13.48;65.03;100037.84;5070798;28;20044;-50
2021/09/07 09:45:51;;;;;;;3.90;1.40;;;;;;;13.52;65.01;100042.03;5068190;28;20044;-52
2021/09/07 09:48:29;;;;;;;8.40;1.40;;;;;;;13.51;64.70;100040.31;5071441;28;20085;-50
2021/09/07 09:50:57;;;;;;;1.73;0.95;;;;;;;13.56;64.84;100046.22;5082472;28;20189;-49
2021/09/07 09:53:23;;;;;;;2.75;0.85;;;;;;;13.44;64.87;100046.72;5088447;28;20051;-53
2021/09/07 09:55:50;;;;;;;3.90;1.27;;;;;;;13.43;65.52;100044.16;5061803;28;20147;-64
2021/09/07 09:58:17;;;;;;;2.33;1.38;;;;;;;13.48;65.39;100050.06;5085907;28;20040;-62
2021/09/07 10:00:47;;;;;;;3.90;1.35;;;;;;;13.56;65.25;100045.34;5052919;28;20043;-63
2021/09/07 10:03:14;;;;;;;2.53;1.17;;;;;;;13.59;65.32;100047.84;5068046;28;20268;-63
2021/09/07 10:05:41;;;;;;;2.55;1.10;;;;;;;13.61;65.18;100039.97;5084449;28;20070;-66
2021/09/07 10:08:07;;;;;;;3.83;1.38;;;;;;;13.68;64.91;100044.84;5068764;28;20077;-67
2021/09/07 10:10:34;;;;;;;4.13;1.33;;;;;;;13.74;65.23;100052.44;5069210;28;20044;-61
2021/09/07 10:13:01;;;;;;;5.25;1.35;;;;;;;13.76;65.00;100050.63;5069462;28;20036;-61
2021/09/07 10:15:40;;;;;;;3.47;1.00;;;;;;;13.83;64.73;100054.69;5084724;28;20036;-58
2021/09/07 10:23:53;;;;;;;3.65;1.25;;;;;;;13.80;64.96;100049.59;5031893;28;20048;-61
2021/09/07 10:26:44;;;;;;;2.08;1.15;;;;;;;13.89;64.96;100048.34;5083557;28;20036;-61
2021/09/07 10:29:20;;;;;;;2.97;1.10;;;;;;;13.97;64.71;100047.09;5084661;28;20040;-60
2021/09/07 10:31:47;;;;;;;4.35;1.67;;;;;;;13.91;65.15;100046.53;5067849;28;20044;-62
2021/09/07 10:34:14;;;;;;;2.50;1.17;;;;;;;13.95;65.20;100048.09;5100241;28;20404;-65
2021/09/07 10:37:09;;;;;;;4.40;1.50;;;;;;;13.81;65.68;100035.63;5070493;28;20044;-64
2021/09/07 10:39:42;;;;;;;4.68;1.48;;;;;;;13.86;65.90;100040.66;5090430;28;20040;-63
2021/09/07 10:42:14;;;;;;;2.20;0.88;;;;;;;13.84;65.86;100034.63;5083203;28;20164;-60
2021/09/07 10:44:42;;;;;;;3.47;1.77;;;;;;;13.99;65.82;100050.50;5057366;28;20127;-62
2021/09/07 10:47:11;;;;;;;3.08;1.63;;;;;;;13.91;66.13;100049.13;5073525;28;20130;-61
2021/09/07 10:49:37;;;;;;;3.67;1.55;;;;;;;13.93;66.43;100050.75;5089380;28;20032;-62
2021/09/07 10:52:09;;;;;;;3.13;1.38;;;;;;;14.03;66.20;100051.22;5069828;28;20068;-61
2021/09/07 10:54:48;;;;;;;2.15;1.20;;;;;;;13.95;66.46;100041.09;5064227;28;20439;-62
2021/09/07 10:57:33;;;;;;;;;;;;;;;13.92;66.81;100053.47;5056709;28;20136;-62
2021/09/07 11:00:22;;;;;;;1.20;0.75;;;;;;;13.81;67.30;100053.91;5085639;28;19927;-58
2021/09/07 11:02:55;;;;;;;2.25;1.50;;;;;;;13.80;67.51;100052.19;5077687;28;20075;-60
2021/09/07 11:05:34;;;;;;;4.78;1.30;;;;;;;13.89;67.51;100048.34;5089913;28;20043;-58
2021/09/07 11:08:11;;;;;;;2.40;1.13;;;;;;;13.82;67.56;100042.50;5088809;28;20068;-58
2021/09/07 11:10:44;;;;;;;1.60;1.00;;;;;;;13.76;68.37;100050.63;5092164;28;20117;-49
2021/09/07 11:13:17;;;;;;;3.38;1.30;;;;;;;13.70;68.54;100039.56;5089625;28;20131;-54
2021/09/07 11:15:44;;;;;;;2.72;1.48;;;;;;;13.86;68.45;100044.09;5069542;28;20421;-54
2021/09/07 11:18:14;;;;;;;5.38;1.63;;;;;;;13.89;68.02;100046.59;5086289;28;20036;-59
2021/09/07 11:20:43;;;;;;;2.40;1.35;;;;;;;13.89;68.10;100048.34;5076471;28;20048;-51
2021/09/07 11:23:17;;;;;;;2.40;1.23;;;;;;;13.87;68.40;100051.00;5072780;28;20051;-56
2021/09/07 11:26:01;;;;;;;6.80;1.90;;;;;;;13.91;68.38;100052.59;5082891;28;20040;-51
2021/09/07 11:28:27;;;;;;;1.88;1.23;;;;;;;13.83;68.31;100053.81;5071949;28;20059;-48
2021/09/07 11:30:53;;;;;;;3.47;1.50;;;;;;;13.77;68.79;100054.06;5070112;28;20044;-51
2021/09/07 11:33:20;;;;;;;1.65;1.13;;;;;;;13.72;69.05;100033.34;5069770;28;20139;-58
2021/09/07 11:35:49;;;;;;;3.85;1.83;;;;;;;13.85;69.02;100047.63;5069707;28;20564;-55